createdAt,value
2019-06-26T00:01:45.902Z,22.26
2019-06-26T00:04:14.925Z,22.19
2019-06-26T00:06:43.974Z,22.13
2019-06-26T00:09:13.698Z,22.07
2019-06-26T00:11:42.732Z,22.04
2019-06-26T00:14:11.769Z,22.05
2019-06-26T00:16:40.785Z,22.07
2019-06-26T00:19:09.835Z,22.07
2019-06-26T00:21:38.870Z,22.05
2019-06-26T00:24:08.034Z,22.01
2019-06-26T00:26:37.212Z,21.96
2019-06-26T00:29:06.283Z,21.91
2019-06-26T00:31:35.340Z,21.87
2019-06-26T00:34:04.519Z,21.83
2019-06-26T00:36:33.476Z,21.77
2019-06-26T00:39:02.522Z,21.72
2019-06-26T00:41:31.546Z,21.68
2019-06-26T00:44:00.628Z,21.66
2019-06-26T00:46:29.667Z,21.65
2019-06-26T00:48:59.011Z,21.63
2019-06-26T00:51:28.060Z,21.61
2019-06-26T00:53:57.531Z,21.59
2019-06-26T00:56:27.457Z,21.58
2019-06-26T00:58:57.518Z,21.57
2019-06-26T01:01:27.505Z,21.52
2019-06-26T01:04:00.735Z,21.55
2019-06-26T01:06:45.307Z,21.53
2019-06-26T01:09:15.435Z,21.54
2019-06-26T01:11:44.462Z,21.55
2019-06-26T01:14:13.491Z,21.56
2019-06-26T01:16:42.524Z,21.56
2019-06-26T01:19:11.840Z,21.57
2019-06-26T01:21:40.856Z,21.57
2019-06-26T01:24:09.986Z,21.57
2019-06-26T01:26:39.003Z,21.58
2019-06-26T01:29:08.398Z,21.57
2019-06-26T01:31:37.428Z,21.57
2019-06-26T01:34:06.452Z,21.56
2019-06-26T01:36:35.475Z,21.54
2019-06-26T01:39:05.818Z,21.54
2019-06-26T01:41:34.871Z,21.53
2019-06-26T01:44:14.087Z,21.53
2019-06-26T01:46:35.555Z,21.55
2019-06-26T01:49:04.609Z,21.57
2019-06-26T01:51:33.648Z,21.55
2019-06-26T01:54:02.732Z,21.54
2019-06-26T01:56:31.743Z,21.52
2019-06-26T01:59:00.783Z,21.50
2019-06-26T02:01:29.812Z,21.45
2019-06-26T02:03:58.851Z,21.39
2019-06-26T02:06:28.021Z,21.35
2019-06-26T02:08:58.043Z,21.30
2019-06-26T02:11:28.028Z,21.26
2019-06-26T02:13:57.989Z,21.23
2019-06-26T02:16:27.982Z,21.21
2019-06-26T02:19:00.498Z,21.16
2019-06-26T02:21:29.962Z,21.16
2019-06-26T02:23:58.969Z,21.14
2019-06-26T02:26:28.139Z,21.13
2019-06-26T02:28:58.463Z,21.11
2019-06-26T02:31:28.187Z,21.11
2019-06-26T02:33:58.238Z,21.09
2019-06-26T02:36:28.119Z,21.07
2019-06-26T02:38:57.138Z,21.05
2019-06-26T02:41:26.187Z,21.05
2019-06-26T02:43:55.502Z,21.05
2019-06-26T02:46:24.471Z,21.03
2019-06-26T02:48:53.513Z,21.03
2019-06-26T02:51:22.561Z,21.04
2019-06-26T02:53:51.567Z,21.05
2019-06-26T02:56:20.598Z,21.07
2019-06-26T02:58:49.622Z,21.08
2019-06-26T03:01:18.676Z,21.11
2019-06-26T03:03:47.707Z,21.12
2019-06-26T03:06:16.667Z,21.15
2019-06-26T03:08:45.767Z,21.18
2019-06-26T03:11:14.796Z,21.19
2019-06-26T03:13:43.842Z,21.19
2019-06-26T03:16:12.793Z,21.28
2019-06-26T03:18:41.815Z,21.32
2019-06-26T03:21:10.929Z,21.37
2019-06-26T03:23:40.852Z,21.46
2019-06-26T03:26:09.888Z,21.53
2019-06-26T03:28:38.903Z,21.68
2019-06-26T03:31:07.946Z,21.94
2019-06-26T03:33:37.330Z,22.19
2019-06-26T03:36:06.421Z,22.46
2019-06-26T03:38:35.782Z,22.61
2019-06-26T03:41:05.086Z,22.63
2019-06-26T03:43:35.631Z,22.65
2019-06-26T03:46:04.956Z,22.73
2019-06-26T03:48:34.126Z,22.75
2019-06-26T03:51:03.131Z,22.78
2019-06-26T03:53:32.074Z,22.89
2019-06-26T03:56:01.120Z,23.06
2019-06-26T03:58:30.425Z,23.30
2019-06-26T04:00:59.455Z,23.48
2019-06-26T04:03:28.700Z,23.66
2019-06-26T04:05:58.673Z,23.84
2019-06-26T04:08:28.678Z,23.96
2019-06-26T04:10:58.782Z,24.06
2019-06-26T04:13:28.718Z,24.18
2019-06-26T04:15:58.856Z,24.27
2019-06-26T04:18:28.759Z,24.39
2019-06-26T04:20:58.829Z,24.53
2019-06-26T04:23:28.860Z,24.62
2019-06-26T04:25:58.863Z,24.74
2019-06-26T04:28:28.887Z,24.91
2019-06-26T04:30:58.887Z,25.41
2019-06-26T04:33:28.835Z,26.42
2019-06-26T04:35:57.796Z,27.23
2019-06-26T04:38:26.750Z,28.00
2019-06-26T04:40:55.742Z,28.59
2019-06-26T04:43:24.718Z,29.19
2019-06-26T04:45:58.008Z,29.58
2019-06-26T04:48:24.383Z,29.73
2019-06-26T04:50:53.352Z,30.10
2019-06-26T04:53:22.428Z,30.36
2019-06-26T04:55:51.430Z,31.13
2019-06-26T04:58:20.326Z,31.79
2019-06-26T05:00:49.699Z,32.34
2019-06-26T05:03:18.712Z,32.64
2019-06-26T05:05:47.771Z,32.81
2019-06-26T05:08:16.782Z,32.99
2019-06-26T05:10:45.802Z,33.43
2019-06-26T05:13:15.145Z,33.61
2019-06-26T05:15:44.290Z,34.18
2019-06-26T05:18:13.409Z,34.16
2019-06-26T05:20:42.474Z,34.60
2019-06-26T05:23:11.829Z,34.88
2019-06-26T05:25:40.858Z,34.90
2019-06-26T05:28:09.870Z,34.77
2019-06-26T05:30:38.947Z,34.91
2019-06-26T05:33:08.022Z,34.89
2019-06-26T05:35:37.046Z,35.24
2019-06-26T05:38:06.088Z,35.07
2019-06-26T05:40:35.121Z,35.29
2019-06-26T05:43:04.154Z,35.22
2019-06-26T05:45:33.183Z,35.49
2019-06-26T05:48:02.842Z,35.17
2019-06-26T05:50:31.927Z,35.07
2019-06-26T05:53:00.891Z,35.10
2019-06-26T05:55:30.178Z,35.32
2019-06-26T05:57:59.522Z,35.36
2019-06-26T06:00:29.552Z,35.65
2019-06-26T06:02:59.469Z,35.70
2019-06-26T06:05:29.449Z,35.64
2019-06-26T06:07:59.617Z,36.23
2019-06-26T06:10:29.638Z,36.71
2019-06-26T06:12:59.654Z,36.86
2019-06-26T06:15:29.755Z,36.47
2019-06-26T06:17:59.679Z,36.96
2019-06-26T06:20:38.035Z,36.39
2019-06-26T06:23:07.272Z,36.06
2019-06-26T06:25:36.311Z,35.96
2019-06-26T06:28:05.356Z,35.91
2019-06-26T06:30:34.414Z,35.64
2019-06-26T06:33:03.451Z,35.91
2019-06-26T06:35:32.482Z,35.51
2019-06-26T06:38:01.520Z,35.14
2019-06-26T06:40:30.485Z,35.17
2019-06-26T06:42:59.827Z,35.14
2019-06-26T06:45:29.861Z,35.25
2019-06-26T06:47:59.792Z,35.64
2019-06-26T06:50:29.880Z,35.69
2019-06-26T06:52:58.896Z,35.60
2019-06-26T06:55:27.932Z,35.92
2019-06-26T06:57:56.970Z,36.12
2019-06-26T07:00:26.048Z,35.96
2019-06-26T07:02:54.994Z,36.36
2019-06-26T07:05:23.983Z,36.64
2019-06-26T07:07:53.030Z,36.48
2019-06-26T07:10:22.074Z,36.57
2019-06-26T07:12:51.138Z,36.91
2019-06-26T07:15:20.559Z,36.44
2019-06-26T07:17:49.594Z,36.13
2019-06-26T07:20:19.016Z,36.01
2019-06-26T07:22:48.335Z,35.76
2019-06-26T07:25:17.779Z,34.37
2019-06-26T07:27:47.013Z,33.39
2019-06-26T07:30:16.978Z,33.20
2019-06-26T07:32:46.005Z,32.34
2019-06-26T07:35:15.029Z,32.47
2019-06-26T07:37:44.088Z,32.16
2019-06-26T07:40:13.725Z,32.59
2019-06-26T07:42:42.766Z,33.39
2019-06-26T07:45:12.134Z,33.36
2019-06-26T07:47:43.815Z,33.53
2019-06-26T07:50:13.211Z,33.25
2019-06-26T07:52:42.536Z,33.74
2019-06-26T07:55:12.482Z,33.82
2019-06-26T07:57:42.000Z,33.90
2019-06-26T08:00:11.330Z,33.90
2019-06-26T08:02:40.390Z,33.59
2019-06-26T08:05:09.854Z,33.71
2019-06-26T08:07:38.911Z,33.51
2019-06-26T08:10:08.441Z,33.32
2019-06-26T08:12:37.505Z,32.26
2019-06-26T08:15:07.575Z,31.94
2019-06-26T08:17:36.589Z,31.36
2019-06-26T08:20:06.359Z,30.77
2019-06-26T08:22:35.730Z,30.24
2019-06-26T08:25:05.166Z,30.68
2019-06-26T08:27:34.162Z,29.97
2019-06-26T08:30:03.191Z,30.00
2019-06-26T08:32:32.517Z,30.18
2019-06-26T08:35:01.546Z,30.29
2019-06-26T08:37:31.153Z,30.31
2019-06-26T08:40:01.291Z,29.63
2019-06-26T08:42:31.306Z,28.88
2019-06-26T08:45:01.351Z,28.83
2019-06-26T08:47:31.478Z,28.85
2019-06-26T08:50:01.643Z,29.12
2019-06-26T08:52:31.296Z,29.28
2019-06-26T08:55:01.555Z,29.24
2019-06-26T08:57:31.309Z,29.93
2019-06-26T09:00:01.452Z,29.72
2019-06-26T09:02:31.336Z,28.87
2019-06-26T09:05:01.333Z,28.72
2019-06-26T09:07:31.836Z,28.60
2019-06-26T09:10:01.374Z,28.70
2019-06-26T09:12:31.496Z,28.43
2019-06-26T09:15:01.446Z,27.95
2019-06-26T09:17:31.485Z,27.67
2019-06-26T09:20:01.480Z,27.38
2019-06-26T09:22:31.393Z,27.29
2019-06-26T09:25:00.327Z,27.55
2019-06-26T09:27:29.286Z,27.74
2019-06-26T09:29:58.337Z,27.52
2019-06-26T09:32:27.632Z,27.46
2019-06-26T09:34:56.969Z,27.46
2019-06-26T09:37:25.946Z,27.38
2019-06-26T09:39:54.932Z,27.67
2019-06-26T09:42:23.876Z,27.69
2019-06-26T09:44:53.337Z,27.62
2019-06-26T09:47:22.287Z,27.32
2019-06-26T09:49:51.244Z,27.39
2019-06-26T09:52:20.320Z,27.31
2019-06-26T09:54:49.385Z,27.56
2019-06-26T09:57:18.284Z,27.56
2019-06-26T09:59:47.220Z,27.59
2019-06-26T10:02:16.219Z,27.70
2019-06-26T10:04:45.544Z,27.82
2019-06-26T10:07:14.589Z,27.97
2019-06-26T10:09:43.642Z,28.22
2019-06-26T10:12:13.010Z,27.69
2019-06-26T10:14:47.654Z,27.67
2019-06-26T10:17:12.869Z,27.77
2019-06-26T10:19:41.880Z,27.69
2019-06-26T10:22:10.986Z,27.72
2019-06-26T10:24:40.360Z,27.66
2019-06-26T10:27:09.313Z,27.75
2019-06-26T10:29:38.339Z,27.58
2019-06-26T10:32:07.386Z,27.95
2019-06-26T10:34:36.382Z,28.65
2019-06-26T10:37:05.519Z,28.39
2019-06-26T10:39:34.532Z,28.54
2019-06-26T10:42:03.567Z,28.69
2019-06-26T10:44:32.594Z,28.27
2019-06-26T10:47:02.240Z,27.93
2019-06-26T10:49:32.148Z,27.76
2019-06-26T10:52:01.173Z,27.73
2019-06-26T10:54:30.208Z,27.88
2019-06-26T10:56:59.675Z,27.88
2019-06-26T10:59:28.745Z,27.78
2019-06-26T11:01:57.770Z,28.18
2019-06-26T11:04:26.807Z,28.04
2019-06-26T11:06:55.836Z,28.33
2019-06-26T11:09:24.910Z,28.05
2019-06-26T11:11:54.027Z,27.87
2019-06-26T11:14:23.030Z,27.38
2019-06-26T11:16:52.125Z,27.53
2019-06-26T11:19:21.137Z,27.73
2019-06-26T11:21:50.201Z,28.10
2019-06-26T11:24:19.324Z,28.14
2019-06-26T11:26:48.767Z,27.94
2019-06-26T11:29:17.797Z,27.39
2019-06-26T11:31:46.742Z,27.69
2019-06-26T11:34:15.761Z,28.07
2019-06-26T11:36:49.166Z,27.73
2019-06-26T11:39:15.421Z,27.91
2019-06-26T11:41:44.444Z,27.61
2019-06-26T11:44:13.790Z,27.29
2019-06-26T11:46:42.820Z,27.24
2019-06-26T11:49:11.880Z,27.64
2019-06-26T11:51:41.191Z,27.40
2019-06-26T11:54:10.197Z,27.28
2019-06-26T11:56:39.230Z,27.22
2019-06-26T11:59:08.660Z,27.28
2019-06-26T12:01:37.722Z,27.10
2019-06-26T12:04:06.884Z,27.38
2019-06-26T12:06:35.934Z,27.21
2019-06-26T12:09:07.654Z,26.49
2019-06-26T12:11:36.705Z,26.73
2019-06-26T12:14:05.982Z,26.80
2019-06-26T12:16:35.069Z,26.84
2019-06-26T12:19:04.184Z,26.53
2019-06-26T12:21:33.220Z,26.54
2019-06-26T12:24:03.003Z,26.37
2019-06-26T12:26:33.007Z,26.36
2019-06-26T12:29:03.024Z,26.20
2019-06-26T12:31:33.041Z,26.07
2019-06-26T12:34:03.049Z,26.37
2019-06-26T12:36:33.122Z,26.58
2019-06-26T12:39:04.705Z,26.29
2019-06-26T12:41:33.589Z,26.24
2019-06-26T12:44:03.140Z,26.07
2019-06-26T12:46:33.062Z,26.01
2019-06-26T12:49:02.484Z,26.27
2019-06-26T12:51:31.512Z,26.29
2019-06-26T12:54:00.538Z,26.16
2019-06-26T12:56:29.567Z,26.30
2019-06-26T12:59:00.061Z,26.24
2019-06-26T13:01:29.255Z,26.35
2019-06-26T13:03:58.361Z,26.38
2019-06-26T13:06:27.509Z,27.06
2019-06-26T13:08:56.579Z,27.57
2019-06-26T13:11:25.602Z,27.25
2019-06-26T13:14:02.590Z,27.38
2019-06-26T13:16:25.680Z,27.55
2019-06-26T13:18:54.796Z,27.13
2019-06-26T13:21:23.832Z,27.33
2019-06-26T13:23:54.508Z,26.66
2019-06-26T13:26:23.538Z,26.02
2019-06-26T13:28:52.542Z,25.91
2019-06-26T13:31:21.677Z,26.16
2019-06-26T13:33:50.719Z,25.97
2019-06-26T13:36:19.775Z,26.32
2019-06-26T13:38:48.786Z,25.90
2019-06-26T13:41:17.753Z,25.97
2019-06-26T13:43:46.620Z,25.85
2019-06-26T13:46:15.624Z,25.95
2019-06-26T13:48:45.063Z,26.22
2019-06-26T13:51:14.069Z,26.03
2019-06-26T13:53:43.092Z,26.16
2019-06-26T13:56:12.123Z,26.29
2019-06-26T13:58:41.144Z,25.65
2019-06-26T14:01:10.156Z,25.50
2019-06-26T14:03:39.285Z,25.40
2019-06-26T14:06:08.330Z,25.05
2019-06-26T14:08:37.426Z,24.80
2019-06-26T14:11:07.578Z,24.98
2019-06-26T14:13:36.733Z,25.11
2019-06-26T14:16:05.824Z,25.02
2019-06-26T14:18:34.944Z,24.61
2019-06-26T14:21:04.390Z,24.29
2019-06-26T14:23:36.994Z,23.90
2019-06-26T14:26:04.812Z,24.20
2019-06-26T14:28:34.406Z,24.61
2019-06-26T14:31:04.059Z,24.96
2019-06-26T14:33:34.074Z,24.53
2019-06-26T14:36:03.115Z,24.33
2019-06-26T14:38:32.167Z,24.60
2019-06-26T14:41:01.196Z,24.67
2019-06-26T14:43:30.653Z,24.33
2019-06-26T14:45:59.690Z,24.05
2019-06-26T14:48:28.796Z,23.96
2019-06-26T14:50:57.663Z,23.57
2019-06-26T14:53:26.700Z,23.16
2019-06-26T14:55:55.818Z,23.09
2019-06-26T14:58:25.150Z,22.98
2019-06-26T15:00:54.202Z,23.02
2019-06-26T15:03:23.237Z,23.18
2019-06-26T15:05:52.254Z,22.91
2019-06-26T15:08:22.808Z,22.79
2019-06-26T15:10:51.843Z,22.40
2019-06-26T15:13:20.851Z,22.20
2019-06-26T15:15:49.885Z,22.28
2019-06-26T15:18:19.361Z,22.34
2019-06-26T15:20:49.667Z,22.23
2019-06-26T15:23:19.380Z,22.39
2019-06-26T15:25:49.416Z,22.49
2019-06-26T15:28:19.440Z,23.14
2019-06-26T15:30:49.430Z,22.78
2019-06-26T15:33:19.427Z,22.68
2019-06-26T15:35:49.683Z,22.61
2019-06-26T15:38:22.560Z,22.56
2019-06-26T15:40:51.965Z,22.43
2019-06-26T15:43:21.022Z,21.83
2019-06-26T15:45:50.256Z,21.53
2019-06-26T15:48:19.482Z,21.56
2019-06-26T15:50:48.569Z,21.57
2019-06-26T15:53:17.679Z,21.20
2019-06-26T15:55:46.686Z,21.24
2019-06-26T15:58:15.647Z,21.21
2019-06-26T16:00:45.196Z,21.42
2019-06-26T16:03:14.224Z,21.26
2019-06-26T16:05:43.248Z,20.95
2019-06-26T16:08:12.274Z,20.74
2019-06-26T16:10:41.210Z,20.86
2019-06-26T16:13:10.166Z,20.88
2019-06-26T16:15:39.698Z,21.05
2019-06-26T16:18:17.918Z,20.98
2019-06-26T16:20:46.853Z,20.55
2019-06-26T16:23:16.111Z,20.63
2019-06-26T16:25:45.132Z,20.30
2019-06-26T16:28:14.162Z,20.43
2019-06-26T16:30:43.210Z,20.65
2019-06-26T16:33:12.260Z,20.87
2019-06-26T16:35:41.282Z,20.91
2019-06-26T16:38:10.324Z,20.55
2019-06-26T16:40:39.256Z,19.98
2019-06-26T16:43:08.213Z,19.85
2019-06-26T16:45:37.406Z,19.76
2019-06-26T16:48:06.439Z,19.36
2019-06-26T16:50:35.413Z,19.25
2019-06-26T16:53:04.457Z,19.36
2019-06-26T16:55:33.510Z,19.55
2019-06-26T16:58:02.504Z,19.55
2019-06-26T17:00:31.674Z,19.41
2019-06-26T17:03:00.696Z,19.39
2019-06-26T17:05:29.745Z,19.34
2019-06-26T17:07:58.828Z,19.29
2019-06-26T17:10:27.917Z,19.43
2019-06-26T17:12:56.879Z,19.41
2019-06-26T17:15:25.923Z,19.29
2019-06-26T17:17:54.972Z,19.08
2019-06-26T17:20:24.003Z,18.99
2019-06-26T17:23:05.114Z,18.92
2019-06-26T17:25:23.680Z,18.83
2019-06-26T17:27:52.731Z,18.43
2019-06-26T17:30:22.337Z,18.73
2019-06-26T17:32:52.208Z,18.70
2019-06-26T17:35:22.246Z,18.68
2019-06-26T17:37:52.277Z,18.50
2019-06-26T17:40:22.820Z,18.66
2019-06-26T17:42:52.304Z,18.77
2019-06-26T17:45:22.327Z,18.72
2019-06-26T17:47:52.225Z,18.71
2019-06-26T17:50:21.354Z,18.42
2019-06-26T17:52:50.394Z,18.47
2019-06-26T17:55:19.449Z,18.34
2019-06-26T17:57:48.472Z,18.23
2019-06-26T18:00:18.921Z,18.19
2019-06-26T18:02:47.911Z,18.08
2019-06-26T18:05:16.924Z,18.14
2019-06-26T18:07:45.936Z,18.05
2019-06-26T18:10:15.242Z,17.84
2019-06-26T18:12:44.262Z,17.97
2019-06-26T18:15:13.290Z,17.98
2019-06-26T18:17:42.329Z,18.15
2019-06-26T18:20:11.698Z,18.06
2019-06-26T18:22:40.990Z,17.94
2019-06-26T18:25:10.111Z,17.82
2019-06-26T18:27:39.136Z,17.83
2019-06-26T18:30:08.741Z,17.94
2019-06-26T18:32:37.750Z,17.80
2019-06-26T18:35:06.979Z,17.79
2019-06-26T18:37:36.010Z,17.68
2019-06-26T18:40:05.483Z,17.66
2019-06-26T18:42:34.452Z,17.51
2019-06-26T18:45:03.464Z,17.48
2019-06-26T18:47:32.494Z,17.36
2019-06-26T18:50:01.525Z,17.27
2019-06-26T18:52:30.845Z,17.13
2019-06-26T18:54:59.806Z,17.07
2019-06-26T18:57:28.775Z,16.91
2019-06-26T18:59:57.837Z,16.94
2019-06-26T19:02:26.841Z,16.75
2019-06-26T19:04:55.874Z,16.81
2019-06-26T19:07:25.143Z,16.74
2019-06-26T19:09:54.171Z,16.72
2019-06-26T19:12:23.220Z,16.63
2019-06-26T19:14:53.052Z,16.64
2019-06-26T19:17:23.442Z,16.73
2019-06-26T19:19:52.995Z,16.79
2019-06-26T19:22:23.063Z,16.86
2019-06-26T19:24:53.035Z,16.88
2019-06-26T19:27:23.040Z,16.64
2019-06-26T19:29:53.141Z,16.49
2019-06-26T19:32:23.015Z,16.53
2019-06-26T19:34:52.014Z,16.38
2019-06-26T19:37:21.077Z,16.22
2019-06-26T19:39:50.103Z,16.12
2019-06-26T19:42:19.168Z,16.33
2019-06-26T19:44:48.180Z,16.32
2019-06-26T19:47:17.269Z,16.27
2019-06-26T19:49:46.269Z,16.19
2019-06-26T19:52:15.348Z,16.26
2019-06-26T19:54:44.310Z,16.39
2019-06-26T19:57:13.426Z,16.39
2019-06-26T19:59:42.456Z,16.37
2019-06-26T20:02:11.510Z,16.25
2019-06-26T20:04:40.576Z,16.20
2019-06-26T20:07:09.614Z,16.05
2019-06-26T20:09:38.670Z,16.05
2019-06-26T20:12:08.010Z,16.01
2019-06-26T20:14:37.015Z,16.01
2019-06-26T20:17:06.037Z,15.98
2019-06-26T20:19:34.990Z,15.96
2019-06-26T20:22:04.063Z,15.97
2019-06-26T20:24:43.626Z,15.93
2019-06-26T20:27:04.266Z,15.86
2019-06-26T20:29:33.268Z,15.89
2019-06-26T20:32:02.331Z,15.94
2019-06-26T20:34:31.298Z,15.96
2019-06-26T20:37:00.200Z,15.81
2019-06-26T20:39:29.178Z,15.81
2019-06-26T20:41:58.179Z,15.68
2019-06-26T20:44:27.093Z,15.72
2019-06-26T20:46:56.047Z,15.67
2019-06-26T20:49:24.990Z,15.81
2019-06-26T20:51:54.032Z,15.77
2019-06-26T20:54:23.939Z,15.74
2019-06-26T20:56:53.951Z,15.67
2019-06-26T20:59:23.937Z,15.61
2019-06-26T21:01:53.991Z,15.63
2019-06-26T21:04:23.855Z,15.60
2019-06-26T21:06:52.771Z,15.63
2019-06-26T21:09:21.831Z,15.62
2019-06-26T21:11:50.838Z,15.56
2019-06-26T21:14:19.802Z,15.43
2019-06-26T21:16:48.691Z,15.47
2019-06-26T21:19:17.725Z,15.51
2019-06-26T21:21:46.681Z,15.44
2019-06-26T21:24:15.696Z,15.45
2019-06-26T21:26:44.697Z,15.42
2019-06-26T21:29:13.733Z,15.40
2019-06-26T21:31:42.659Z,15.45
2019-06-26T21:34:11.652Z,15.39
2019-06-26T21:36:40.591Z,15.37
2019-06-26T21:39:09.641Z,15.33
2019-06-26T21:41:38.582Z,15.23
2019-06-26T21:44:07.631Z,15.25
2019-06-26T21:46:36.577Z,15.17
2019-06-26T21:49:05.626Z,15.15
2019-06-26T21:51:34.566Z,15.22
2019-06-26T21:54:03.570Z,15.14
2019-06-26T21:56:32.531Z,15.06
2019-06-26T21:59:01.539Z,15.05
2019-06-26T22:01:31.379Z,14.82
2019-06-26T22:04:01.014Z,14.86
2019-06-26T22:06:30.474Z,14.87
2019-06-26T22:08:59.511Z,14.89
2019-06-26T22:11:28.538Z,14.86
2019-06-26T22:13:57.824Z,14.76
2019-06-26T22:16:27.135Z,14.65
2019-06-26T22:18:56.173Z,14.66
2019-06-26T22:21:25.218Z,14.63
2019-06-26T22:23:54.598Z,14.69
2019-06-26T22:26:24.682Z,14.54
2019-06-26T22:28:54.716Z,14.55
2019-06-26T22:31:24.733Z,14.52
2019-06-26T22:33:54.801Z,14.51
2019-06-26T22:36:24.720Z,14.40
2019-06-26T22:38:54.046Z,14.43
2019-06-26T22:41:23.090Z,14.44
2019-06-26T22:43:52.112Z,14.48
2019-06-26T22:46:21.173Z,14.32
2019-06-26T22:48:50.152Z,14.28
2019-06-26T22:51:19.171Z,14.23
2019-06-26T22:53:48.224Z,14.29
2019-06-26T22:56:17.309Z,14.19
2019-06-26T22:58:46.347Z,14.17
2019-06-26T23:01:15.399Z,14.09
2019-06-26T23:03:44.456Z,14.00
2019-06-26T23:06:13.498Z,14.09
2019-06-26T23:08:42.531Z,14.11
2019-06-26T23:11:11.597Z,14.22
2019-06-26T23:13:40.627Z,14.21
2019-06-26T23:16:09.687Z,14.17
2019-06-26T23:18:38.723Z,14.14
2019-06-26T23:21:07.758Z,14.22
2019-06-26T23:23:36.824Z,14.14
2019-06-26T23:26:06.107Z,14.12
2019-06-26T23:28:35.153Z,14.19
2019-06-26T23:31:04.164Z,14.18
2019-06-26T23:33:33.236Z,14.17
2019-06-26T23:36:02.239Z,14.10
2019-06-26T23:38:31.174Z,14.14
2019-06-26T23:41:00.241Z,14.09
2019-06-26T23:43:29.588Z,14.05
2019-06-26T23:45:58.592Z,14.20
2019-06-26T23:48:27.899Z,14.11
2019-06-26T23:50:56.834Z,14.05
2019-06-26T23:53:25.894Z,14.03
2019-06-26T23:55:55.524Z,14.10
2019-06-26T23:58:25.893Z,14.15
